createdAt,value
2022-12-01T00:00:17.261Z,1009.21
2022-12-01T00:01:17.241Z,1009.24
2022-12-01T00:02:17.333Z,1009.24
2022-12-01T00:03:17.329Z,1009.22
2022-12-01T00:04:17.197Z,1009.22
2022-12-01T00:05:17.217Z,1009.19
2022-12-01T00:06:17.178Z,1009.17
2022-12-01T00:07:17.164Z,1009.19
2022-12-01T00:08:17.145Z,1009.17
2022-12-01T00:09:19.898Z,1009.21
2022-12-01T00:10:17.119Z,1009.19
2022-12-01T00:11:17.123Z,1009.26
2022-12-01T00:12:17.115Z,1009.25
2022-12-01T00:13:17.085Z,1009.18
2022-12-01T00:14:17.071Z,1009.23
2022-12-01T00:15:17.113Z,1009.19
2022-12-01T00:16:17.151Z,1009.21
2022-12-01T00:17:17.066Z,1009.28
2022-12-01T00:18:17.020Z,1009.23
2022-12-01T00:19:17.017Z,1009.21
2022-12-01T00:20:17.002Z,1009.31
2022-12-01T00:21:17.003Z,1009.29
2022-12-01T00:22:16.966Z,1009.32
2022-12-01T00:23:16.958Z,1009.29
2022-12-01T00:24:16.943Z,1009.30
2022-12-01T00:25:16.933Z,1009.32
2022-12-01T00:26:16.928Z,1009.26
2022-12-01T00:27:16.908Z,1009.32
2022-12-01T00:28:16.914Z,1009.35
2022-12-01T00:29:16.884Z,1009.30
2022-12-01T00:30:16.871Z,1009.30
2022-12-01T00:31:16.959Z,1009.31
2022-12-01T00:32:16.931Z,1009.32
2022-12-01T00:33:16.841Z,1009.32
2022-12-01T00:34:16.811Z,1009.32
2022-12-01T00:35:16.835Z,1009.32
2022-12-01T00:36:16.800Z,1009.31
2022-12-01T00:37:16.774Z,1009.36
2022-12-01T00:38:16.760Z,1009.31
2022-12-01T00:39:16.749Z,1009.32
2022-12-01T00:40:16.733Z,1009.37
2022-12-01T00:41:16.738Z,1009.34
2022-12-01T00:42:16.709Z,1009.37
2022-12-01T00:43:16.696Z,1009.36
2022-12-01T00:44:16.728Z,1009.33
2022-12-01T00:45:16.677Z,1009.33
2022-12-01T00:46:16.800Z,1009.37
2022-12-01T00:47:16.651Z,1009.35
2022-12-01T00:48:16.641Z,1009.41
2022-12-01T00:49:16.621Z,1009.43
2022-12-01T00:50:16.614Z,1009.39
2022-12-01T00:51:16.639Z,1009.42
2022-12-01T00:52:16.596Z,1009.46
2022-12-01T00:53:16.603Z,1009.41
2022-12-01T00:54:16.556Z,1009.43
2022-12-01T00:55:16.541Z,1009.42
2022-12-01T00:56:16.540Z,1009.43
2022-12-01T00:57:16.521Z,1009.51
2022-12-01T00:58:16.515Z,1009.43
2022-12-01T00:59:16.488Z,1009.42
2022-12-01T01:00:16.492Z,1009.47
2022-12-01T01:01:16.552Z,1009.44
2022-12-01T01:02:16.566Z,1009.45
2022-12-01T01:03:16.440Z,1009.40
2022-12-01T01:04:16.422Z,1009.44
2022-12-01T01:05:16.407Z,1009.42
2022-12-01T01:06:16.415Z,1009.38
2022-12-01T01:07:16.384Z,1009.48
2022-12-01T01:08:16.374Z,1009.43
2022-12-01T01:09:16.358Z,1009.48
2022-12-01T01:10:16.339Z,1009.45
2022-12-01T01:11:16.353Z,1009.45
2022-12-01T01:12:16.324Z,1009.47
2022-12-01T01:13:16.304Z,1009.46
2022-12-01T01:14:16.299Z,1009.47
2022-12-01T01:15:16.277Z,1009.44
2022-12-01T01:16:16.341Z,1009.45
2022-12-01T01:17:16.301Z,1009.43
2022-12-01T01:18:16.980Z,1009.46
2022-12-01T01:19:16.430Z,1009.46
2022-12-01T01:20:16.226Z,1009.47
2022-12-01T01:21:16.213Z,1009.46
2022-12-01T01:22:16.183Z,1009.46
2022-12-01T01:23:16.173Z,1009.44
2022-12-01T01:24:16.159Z,1009.48
2022-12-01T01:25:16.160Z,1009.48
2022-12-01T01:26:16.164Z,1009.45
2022-12-01T01:27:16.135Z,1009.50
2022-12-01T01:28:16.105Z,1009.49
2022-12-01T01:29:16.097Z,1009.46
2022-12-01T01:30:16.137Z,1009.49
2022-12-01T01:31:16.220Z,1009.48
2022-12-01T01:32:16.080Z,1009.51
2022-12-01T01:33:16.042Z,1009.53
2022-12-01T01:34:16.024Z,1009.53
2022-12-01T01:35:16.022Z,1009.55
2022-12-01T01:36:15.998Z,1009.55
2022-12-01T01:37:16.001Z,1009.57
2022-12-01T01:38:15.975Z,1009.52
2022-12-01T01:39:15.958Z,1009.52
2022-12-01T01:40:15.946Z,1009.58
2022-12-01T01:41:15.935Z,1009.57
2022-12-01T01:42:15.969Z,1009.55
2022-12-01T01:43:15.913Z,1009.55
2022-12-01T01:44:15.896Z,1009.52
2022-12-01T01:45:15.882Z,1009.59
2022-12-01T01:46:16.601Z,1009.61
2022-12-01T01:47:15.889Z,1009.61
2022-12-01T01:48:15.866Z,1009.58
2022-12-01T01:49:15.870Z,1009.56
2022-12-01T01:50:15.811Z,1009.60
2022-12-01T01:51:15.799Z,1009.60
2022-12-01T01:52:15.805Z,1009.57
2022-12-01T01:53:15.776Z,1009.62
2022-12-01T01:54:15.851Z,1009.67
2022-12-01T01:55:15.751Z,1009.67
2022-12-01T01:56:15.734Z,1009.61
2022-12-01T01:57:15.748Z,1009.65
2022-12-01T01:58:15.709Z,1009.56
2022-12-01T01:59:15.701Z,1009.53
2022-12-01T02:00:15.680Z,1009.58
2022-12-01T02:01:15.684Z,1009.55
2022-12-01T02:02:15.726Z,1009.57
2022-12-01T02:03:15.642Z,1009.58
2022-12-01T02:04:15.649Z,1009.54
2022-12-01T02:05:15.619Z,1009.56
2022-12-01T02:06:15.599Z,1009.60
2022-12-01T02:07:15.604Z,1009.62
2022-12-01T02:08:15.584Z,1009.59
2022-12-01T02:09:15.565Z,1009.58
2022-12-01T02:10:15.549Z,1009.61
2022-12-01T02:11:15.544Z,1009.66
2022-12-01T02:12:15.537Z,1009.60
2022-12-01T02:13:15.512Z,1009.65
2022-12-01T02:14:15.499Z,1009.64
2022-12-01T02:15:15.485Z,1009.64
2022-12-01T02:16:15.520Z,1009.61
2022-12-01T02:17:15.475Z,1009.62
2022-12-01T02:18:15.441Z,1009.61
2022-12-01T02:19:15.436Z,1009.61
2022-12-01T02:20:15.437Z,1009.62
2022-12-01T02:21:15.407Z,1009.67
2022-12-01T02:22:15.406Z,1009.63
2022-12-01T02:23:15.377Z,1009.62
2022-12-01T02:24:15.370Z,1009.58
2022-12-01T02:25:15.353Z,1009.63
2022-12-01T02:26:15.338Z,1009.63
2022-12-01T02:27:15.340Z,1009.57
2022-12-01T02:28:15.309Z,1009.58
2022-12-01T02:29:15.301Z,1009.59
2022-12-01T02:30:15.286Z,1009.56
2022-12-01T02:31:15.413Z,1009.58
2022-12-01T02:32:15.281Z,1009.59
2022-12-01T02:33:15.248Z,1009.60
2022-12-01T02:34:15.233Z,1009.55
2022-12-01T02:35:15.222Z,1009.63
2022-12-01T02:36:15.225Z,1009.60
2022-12-01T02:37:15.207Z,1009.60
2022-12-01T02:38:15.194Z,1009.61
2022-12-01T02:39:15.166Z,1009.58
2022-12-01T02:40:15.152Z,1009.58
2022-12-01T02:41:15.142Z,1009.52
2022-12-01T02:42:15.139Z,1009.56
2022-12-01T02:43:15.115Z,1009.53
2022-12-01T02:44:15.098Z,1009.59
2022-12-01T02:45:15.087Z,1009.60
2022-12-01T02:46:15.083Z,1009.61
2022-12-01T02:47:15.076Z,1009.60
2022-12-01T02:48:15.048Z,1009.62
2022-12-01T02:49:15.040Z,1009.59
2022-12-01T02:50:15.024Z,1009.62
2022-12-01T02:51:15.006Z,1009.58
2022-12-01T02:52:15.027Z,1009.54
2022-12-01T02:53:14.986Z,1009.54
2022-12-01T02:54:14.970Z,1009.58
2022-12-01T02:55:14.954Z,1009.54
2022-12-01T02:56:14.945Z,1009.58
2022-12-01T02:57:14.941Z,1009.53
2022-12-01T02:58:14.918Z,1009.56
2022-12-01T02:59:14.909Z,1009.59
2022-12-01T03:00:14.893Z,1009.59
2022-12-01T03:01:14.951Z,1009.56
2022-12-01T03:02:14.940Z,1009.61
2022-12-01T03:03:14.851Z,1009.61
2022-12-01T03:04:14.840Z,1009.66
2022-12-01T03:05:14.831Z,1009.60
2022-12-01T03:06:14.828Z,1009.57
2022-12-01T03:07:14.814Z,1009.57
2022-12-01T03:08:14.803Z,1009.61
2022-12-01T03:09:14.773Z,1009.59
2022-12-01T03:10:14.759Z,1009.65
2022-12-01T03:11:14.743Z,1009.57
2022-12-01T03:12:14.758Z,1009.53
2022-12-01T03:13:14.721Z,1009.56
2022-12-01T03:14:14.701Z,1009.50
2022-12-01T03:15:14.690Z,1009.50
2022-12-01T03:16:14.703Z,1009.53
2022-12-01T03:17:14.664Z,1009.48
2022-12-01T03:18:14.666Z,1009.49
2022-12-01T03:19:14.643Z,1009.50
2022-12-01T03:20:14.629Z,1009.47
2022-12-01T03:21:14.611Z,1009.39
2022-12-01T03:22:14.602Z,1009.43
2022-12-01T03:23:14.602Z,1009.33
2022-12-01T03:24:14.590Z,1009.42
2022-12-01T03:25:14.564Z,1009.39
2022-12-01T03:26:14.546Z,1009.44
2022-12-01T03:27:14.533Z,1009.44
2022-12-01T03:28:21.213Z,1009.45
2022-12-01T03:29:14.508Z,1009.48
2022-12-01T03:30:14.500Z,1009.46
2022-12-01T03:31:14.554Z,1009.47
2022-12-01T03:32:14.464Z,1009.50
2022-12-01T03:33:14.470Z,1009.48
2022-12-01T03:34:14.442Z,1009.46
2022-12-01T03:35:14.430Z,1009.43
2022-12-01T03:36:14.414Z,1009.46
2022-12-01T03:37:14.400Z,1009.40
2022-12-01T03:38:14.403Z,1009.43
2022-12-01T03:39:14.375Z,1009.45
2022-12-01T03:40:14.384Z,1009.41
2022-12-01T03:41:14.409Z,1009.51
2022-12-01T03:42:14.341Z,1009.44
2022-12-01T03:43:14.349Z,1009.50
2022-12-01T03:44:14.309Z,1009.48
2022-12-01T03:45:14.309Z,1009.51
2022-12-01T03:46:14.316Z,1009.49
2022-12-01T03:47:14.284Z,1009.50
2022-12-01T03:48:14.272Z,1009.50
2022-12-01T03:49:14.263Z,1009.55
2022-12-01T03:50:14.349Z,1009.49
2022-12-01T03:51:14.219Z,1009.51
2022-12-01T03:52:14.205Z,1009.48
2022-12-01T03:53:14.205Z,1009.50
2022-12-01T03:54:14.180Z,1009.45
2022-12-01T03:55:14.168Z,1009.47
2022-12-01T03:56:14.172Z,1009.50
2022-12-01T03:57:14.141Z,1009.55
2022-12-01T03:58:14.144Z,1009.58
2022-12-01T03:59:14.119Z,1009.54
2022-12-01T04:00:14.096Z,1009.50
2022-12-01T04:01:14.093Z,1009.52
2022-12-01T04:02:14.205Z,1009.64
2022-12-01T04:03:14.160Z,1009.58
2022-12-01T04:04:14.080Z,1009.58
2022-12-01T04:05:14.039Z,1009.56
2022-12-01T04:06:14.021Z,1009.67
2022-12-01T04:07:14.005Z,1009.57
2022-12-01T04:08:14.010Z,1009.64
2022-12-01T04:09:13.981Z,1009.64
2022-12-01T04:10:13.969Z,1009.65
2022-12-01T04:11:13.965Z,1009.68
2022-12-01T04:12:13.963Z,1009.63
2022-12-01T04:13:13.951Z,1009.67
2022-12-01T04:14:13.918Z,1009.66
2022-12-01T04:15:13.906Z,1009.65
2022-12-01T04:16:13.902Z,1009.76
2022-12-01T04:17:13.873Z,1009.66
2022-12-01T04:18:13.878Z,1009.75
2022-12-01T04:19:13.850Z,1009.72
2022-12-01T04:20:13.837Z,1009.74
2022-12-01T04:21:13.828Z,1009.75
2022-12-01T04:22:13.813Z,1009.75
2022-12-01T04:23:13.808Z,1009.75
2022-12-01T04:24:13.784Z,1009.78
2022-12-01T04:25:13.771Z,1009.78
2022-12-01T04:26:15.943Z,1009.74
2022-12-01T04:27:13.741Z,1009.75
2022-12-01T04:28:13.817Z,1009.74
2022-12-01T04:29:13.725Z,1009.72
2022-12-01T04:30:13.706Z,1009.72
2022-12-01T04:31:13.762Z,1009.73
2022-12-01T04:32:13.679Z,1009.71
2022-12-01T04:33:13.664Z,1009.70
2022-12-01T04:34:13.664Z,1009.66
2022-12-01T04:35:13.637Z,1009.68
2022-12-01T04:36:13.650Z,1009.69
2022-12-01T04:37:13.614Z,1009.65
2022-12-01T04:38:13.599Z,1009.68
2022-12-01T04:39:13.597Z,1009.70
2022-12-01T04:40:13.606Z,1009.69
2022-12-01T04:41:13.561Z,1009.72
2022-12-01T04:42:13.545Z,1009.73
2022-12-01T04:43:13.530Z,1009.70
2022-12-01T04:44:13.560Z,1009.70
2022-12-01T04:45:13.508Z,1009.67
2022-12-01T04:46:13.515Z,1009.62
2022-12-01T04:47:13.480Z,1009.69
2022-12-01T04:48:13.467Z,1009.64
2022-12-01T04:49:13.471Z,1009.68
2022-12-01T04:50:13.445Z,1009.60
2022-12-01T04:51:13.425Z,1009.71
2022-12-01T04:52:13.416Z,1009.64
2022-12-01T04:53:13.399Z,1009.70
2022-12-01T04:54:13.414Z,1009.71
2022-12-01T04:55:13.377Z,1009.71
2022-12-01T04:56:13.360Z,1009.71
2022-12-01T04:57:13.346Z,1009.72
2022-12-01T04:58:13.333Z,1009.72
2022-12-01T04:59:13.377Z,1009.69
2022-12-01T05:00:13.387Z,1009.71
2022-12-01T05:01:13.333Z,1009.67
2022-12-01T05:02:13.388Z,1009.69
2022-12-01T05:03:15.223Z,1009.68
2022-12-01T05:04:13.288Z,1009.72
2022-12-01T05:05:13.240Z,1009.74
2022-12-01T05:06:13.229Z,1009.69
2022-12-01T05:07:13.215Z,1009.74
2022-12-01T05:08:13.206Z,1009.70
2022-12-01T05:09:16.926Z,1009.74
2022-12-01T05:10:13.179Z,1009.74
2022-12-01T05:11:13.162Z,1009.78
2022-12-01T05:12:13.150Z,1009.80
2022-12-01T05:13:13.141Z,1009.77
2022-12-01T05:14:13.143Z,1009.75
2022-12-01T05:15:13.117Z,1009.77
2022-12-01T05:16:13.206Z,1009.75
2022-12-01T05:17:13.085Z,1009.76
2022-12-01T05:18:13.119Z,1009.75
2022-12-01T05:19:13.072Z,1009.79
2022-12-01T05:20:13.049Z,1009.77
2022-12-01T05:21:13.032Z,1009.81
2022-12-01T05:22:13.018Z,1009.74
2022-12-01T05:23:16.821Z,1009.81
2022-12-01T05:24:13.017Z,1009.81
2022-12-01T05:25:12.984Z,1009.74
2022-12-01T05:26:12.966Z,1009.76
2022-12-01T05:27:12.980Z,1009.74
2022-12-01T05:28:12.939Z,1009.82
2022-12-01T05:29:12.924Z,1009.77
2022-12-01T05:30:12.933Z,1009.85
2022-12-01T05:31:12.990Z,1009.75
2022-12-01T05:32:12.909Z,1009.78
2022-12-01T05:33:12.875Z,1009.83
2022-12-01T05:34:12.862Z,1009.82
2022-12-01T05:35:12.860Z,1009.77
2022-12-01T05:36:12.835Z,1009.80
2022-12-01T05:37:12.827Z,1009.76
2022-12-01T05:38:12.810Z,1009.73
2022-12-01T05:39:12.792Z,1009.75
2022-12-01T05:40:12.801Z,1009.78
2022-12-01T05:41:12.770Z,1009.77
2022-12-01T05:42:12.754Z,1009.80
2022-12-01T05:43:12.739Z,1009.77
2022-12-01T05:44:12.729Z,1009.77
2022-12-01T05:45:12.726Z,1009.79
2022-12-01T05:46:12.756Z,1009.76
2022-12-01T05:47:12.698Z,1009.73
2022-12-01T05:48:12.698Z,1009.84
2022-12-01T05:49:12.663Z,1009.76
2022-12-01T05:50:12.663Z,1009.76
2022-12-01T05:51:12.637Z,1009.79
2022-12-01T05:52:12.847Z,1009.80
2022-12-01T05:53:12.611Z,1009.81
2022-12-01T05:54:12.603Z,1009.80
2022-12-01T05:55:12.596Z,1009.79
2022-12-01T05:56:12.573Z,1009.81
2022-12-01T05:57:12.559Z,1009.84
2022-12-01T05:58:12.573Z,1009.83
2022-12-01T05:59:12.533Z,1009.91
2022-12-01T06:00:12.533Z,1009.84
2022-12-01T06:01:12.506Z,1009.93
2022-12-01T06:02:12.533Z,1009.91
2022-12-01T06:03:12.477Z,1009.93
2022-12-01T06:04:12.560Z,1009.99
2022-12-01T06:05:12.466Z,1009.92
2022-12-01T06:06:12.439Z,1009.96
2022-12-01T06:07:12.428Z,1009.97
2022-12-01T06:08:12.417Z,1009.99
2022-12-01T06:09:12.398Z,1010.01
2022-12-01T06:10:12.404Z,1010.03
2022-12-01T06:11:12.373Z,1009.99
2022-12-01T06:12:12.362Z,1010.06
2022-12-01T06:13:12.345Z,1010.04
2022-12-01T06:14:12.336Z,1010.10
2022-12-01T06:15:12.335Z,1010.10
2022-12-01T06:16:12.328Z,1010.03
2022-12-01T06:17:12.295Z,1010.12
2022-12-01T06:18:12.285Z,1010.07
2022-12-01T06:19:12.283Z,1010.09
2022-12-01T06:20:12.298Z,1010.04
2022-12-01T06:21:12.242Z,1010.08
2022-12-01T06:22:12.229Z,1010.12
2022-12-01T06:23:12.222Z,1010.07
2022-12-01T06:24:12.207Z,1010.15
2022-12-01T06:25:12.203Z,1010.11
2022-12-01T06:26:12.179Z,1010.10
2022-12-01T06:27:12.167Z,1010.15
2022-12-01T06:28:12.160Z,1010.11
2022-12-01T06:29:12.137Z,1010.19
2022-12-01T06:30:12.141Z,1010.19
2022-12-01T06:31:12.113Z,1010.19
2022-12-01T06:32:12.136Z,1010.18
2022-12-01T06:33:12.091Z,1010.20
2022-12-01T06:34:12.072Z,1010.22
2022-12-01T06:35:12.074Z,1010.17
2022-12-01T06:36:12.072Z,1010.20
2022-12-01T06:37:12.036Z,1010.25
2022-12-01T06:38:12.022Z,1010.21
2022-12-01T06:39:12.015Z,1010.25
2022-12-01T06:40:12.034Z,1010.30
2022-12-01T06:41:11.985Z,1010.28
2022-12-01T06:42:11.973Z,1010.25
2022-12-01T06:43:11.960Z,1010.27
2022-12-01T06:44:11.946Z,1010.36
2022-12-01T06:45:11.948Z,1010.35
2022-12-01T06:46:11.986Z,1010.37
2022-12-01T06:47:11.907Z,1010.41
2022-12-01T06:48:11.897Z,1010.38
2022-12-01T06:49:11.887Z,1010.36
2022-12-01T06:50:11.895Z,1010.35
2022-12-01T06:51:11.857Z,1010.41
2022-12-01T06:52:11.865Z,1010.37
2022-12-01T06:53:11.840Z,1010.40
2022-12-01T06:54:11.824Z,1010.39
2022-12-01T06:55:11.833Z,1010.45
2022-12-01T06:56:11.796Z,1010.44
2022-12-01T06:57:11.780Z,1010.44
2022-12-01T06:58:11.773Z,1010.43
2022-12-01T06:59:11.761Z,1010.43
2022-12-01T07:00:11.749Z,1010.40
2022-12-01T07:01:11.822Z,1010.40
2022-12-01T07:02:11.791Z,1010.47
2022-12-01T07:03:11.707Z,1010.46
2022-12-01T07:04:11.694Z,1010.49
2022-12-01T07:05:11.708Z,1010.38
2022-12-01T07:06:11.707Z,1010.48
2022-12-01T07:07:11.653Z,1010.49
2022-12-01T07:08:11.697Z,1010.46
2022-12-01T07:09:11.630Z,1010.51
2022-12-01T07:10:11.618Z,1010.48
2022-12-01T07:11:11.619Z,1010.47
2022-12-01T07:12:11.592Z,1010.52
2022-12-01T07:13:11.578Z,1010.47
2022-12-01T07:14:11.563Z,1010.49
2022-12-01T07:15:11.552Z,1010.50
2022-12-01T07:16:11.607Z,1010.47
2022-12-01T07:17:11.524Z,1010.54
2022-12-01T07:18:11.520Z,1010.56
2022-12-01T07:19:11.496Z,1010.59
2022-12-01T07:20:11.488Z,1010.57
2022-12-01T07:21:11.485Z,1010.58
2022-12-01T07:22:11.458Z,1010.53
2022-12-01T07:23:11.446Z,1010.53
2022-12-01T07:24:11.460Z,1010.52
2022-12-01T07:25:11.420Z,1010.58
2022-12-01T07:26:11.424Z,1010.58
2022-12-01T07:27:11.393Z,1010.60
2022-12-01T07:28:11.381Z,1010.60
2022-12-01T07:29:11.366Z,1010.58
2022-12-01T07:30:11.363Z,1010.54
2022-12-01T07:31:11.405Z,1010.58
2022-12-01T07:32:11.339Z,1010.65
2022-12-01T07:33:11.315Z,1010.64
2022-12-01T07:34:11.307Z,1010.66
2022-12-01T07:35:11.287Z,1010.72
2022-12-01T07:36:11.290Z,1010.72
2022-12-01T07:37:11.265Z,1010.70
2022-12-01T07:38:11.254Z,1010.74
2022-12-01T07:39:11.239Z,1010.75
2022-12-01T07:40:11.243Z,1010.71
2022-12-01T07:41:11.228Z,1010.73
2022-12-01T07:42:11.204Z,1010.75
2022-12-01T07:43:11.183Z,1010.77
2022-12-01T07:44:11.180Z,1010.72
2022-12-01T07:45:11.158Z,1010.75
2022-12-01T07:46:11.227Z,1010.76
2022-12-01T07:47:11.133Z,1010.79
2022-12-01T07:48:11.125Z,1010.73
2022-12-01T07:49:11.104Z,1010.76
2022-12-01T07:50:11.105Z,1010.76
2022-12-01T07:51:11.093Z,1010.73
2022-12-01T07:52:11.077Z,1010.77
2022-12-01T07:53:11.058Z,1010.76
2022-12-01T07:54:11.043Z,1010.76
2022-12-01T07:55:11.034Z,1010.76
2022-12-01T07:56:11.093Z,1010.76
2022-12-01T07:57:11.005Z,1010.77
2022-12-01T07:58:10.992Z,1010.78
2022-12-01T07:59:10.985Z,1010.72
2022-12-01T08:00:10.989Z,1010.70
2022-12-01T08:01:11.016Z,1010.75
2022-12-01T08:02:11.058Z,1010.72
2022-12-01T08:03:10.993Z,1010.71
2022-12-01T08:04:10.912Z,1010.73
2022-12-01T08:05:10.894Z,1010.70
2022-12-01T08:06:10.887Z,1010.75
2022-12-01T08:07:10.888Z,1010.72
2022-12-01T08:08:10.945Z,1010.65
2022-12-01T08:09:10.842Z,1010.70
2022-12-01T08:10:10.843Z,1010.70
2022-12-01T08:11:10.814Z,1010.70
2022-12-01T08:12:10.837Z,1010.70
2022-12-01T08:13:15.753Z,1010.70
2022-12-01T08:14:11.781Z,1010.76
2022-12-01T08:15:10.769Z,1010.72
2022-12-01T08:16:10.817Z,1010.71
2022-12-01T08:17:10.752Z,1010.74
2022-12-01T08:18:10.725Z,1010.70
2022-12-01T08:19:10.713Z,1010.71
2022-12-01T08:20:10.702Z,1010.70
2022-12-01T08:21:10.689Z,1010.72
2022-12-01T08:22:10.690Z,1010.73
2022-12-01T08:23:10.660Z,1010.71
2022-12-01T08:24:10.649Z,1010.73
2022-12-01T08:25:10.752Z,1010.78
2022-12-01T08:26:10.620Z,1010.77
2022-12-01T08:27:10.627Z,1010.79
2022-12-01T08:28:10.617Z,1010.85
2022-12-01T08:29:13.547Z,1010.83
2022-12-01T08:30:10.605Z,1010.86
2022-12-01T08:31:10.654Z,1010.80
2022-12-01T08:32:10.558Z,1010.80
2022-12-01T08:33:10.531Z,1010.84
2022-12-01T08:34:10.517Z,1010.77
2022-12-01T08:35:10.637Z,1010.77
2022-12-01T08:36:10.494Z,1010.78
2022-12-01T08:37:10.516Z,1010.78
2022-12-01T08:38:10.465Z,1010.79
2022-12-01T08:39:10.452Z,1010.79
2022-12-01T08:40:10.433Z,1010.77
2022-12-01T08:41:10.422Z,1010.75
2022-12-01T08:42:10.438Z,1010.79
2022-12-01T08:43:23.111Z,1010.77
2022-12-01T08:44:10.473Z,1010.75
2022-12-01T08:45:10.373Z,1010.78
2022-12-01T08:46:10.377Z,1010.82
2022-12-01T08:47:14.327Z,1010.76
2022-12-01T08:48:11.332Z,1010.77
2022-12-01T08:49:10.325Z,1010.82
2022-12-01T08:50:10.304Z,1010.80
2022-12-01T08:51:10.299Z,1010.80
2022-12-01T08:52:10.294Z,1010.80
2022-12-01T08:53:10.268Z,1010.82
2022-12-01T08:54:10.252Z,1010.78
2022-12-01T08:55:10.241Z,1010.78
2022-12-01T08:56:10.226Z,1010.85
2022-12-01T08:57:10.238Z,1010.82
2022-12-01T08:58:10.202Z,1010.84
2022-12-01T08:59:10.193Z,1010.82
2022-12-01T09:00:10.204Z,1010.85
2022-12-01T09:01:10.169Z,1010.85
2022-12-01T09:02:10.215Z,1010.80
2022-12-01T09:03:10.167Z,1010.86
2022-12-01T09:04:10.127Z,1010.82
2022-12-01T09:05:10.117Z,1010.82
2022-12-01T09:06:10.115Z,1010.79
2022-12-01T09:07:10.097Z,1010.77
2022-12-01T09:08:10.125Z,1010.81
2022-12-01T09:09:10.057Z,1010.76
2022-12-01T09:10:10.048Z,1010.72
2022-12-01T09:11:10.048Z,1010.71
2022-12-01T09:12:10.045Z,1010.74
2022-12-01T09:13:10.007Z,1010.75
2022-12-01T09:14:09.992Z,1010.75
2022-12-01T09:15:10.003Z,1010.75
2022-12-01T09:16:10.065Z,1010.72
2022-12-01T09:17:09.980Z,1010.66
2022-12-01T09:18:09.940Z,1010.80
2022-12-01T09:19:09.934Z,1010.72
2022-12-01T09:20:09.916Z,1010.78
2022-12-01T09:21:09.908Z,1010.77
2022-12-01T09:22:09.905Z,1010.71
2022-12-01T09:23:09.880Z,1010.73
2022-12-01T09:24:09.863Z,1010.79
2022-12-01T09:25:09.857Z,1010.70
2022-12-01T09:26:13.626Z,1010.75
2022-12-01T09:27:09.861Z,1010.71
2022-12-01T09:28:09.816Z,1010.75
2022-12-01T09:29:09.802Z,1010.74
2022-12-01T09:30:09.786Z,1010.71
2022-12-01T09:31:09.868Z,1010.70
2022-12-01T09:32:09.795Z,1010.66
2022-12-01T09:33:09.755Z,1010.66
2022-12-01T09:34:09.740Z,1010.67
2022-12-01T09:35:09.727Z,1010.63
2022-12-01T09:36:09.714Z,1010.66
2022-12-01T09:37:09.712Z,1010.64
2022-12-01T09:38:09.689Z,1010.66
2022-12-01T09:39:09.673Z,1010.66
2022-12-01T09:40:09.662Z,1010.74
2022-12-01T09:41:09.648Z,1010.86
2022-12-01T09:42:09.664Z,1010.87
2022-12-01T09:43:09.620Z,1010.89
2022-12-01T09:44:09.607Z,1010.85
2022-12-01T09:45:09.596Z,1010.80
2022-12-01T09:46:09.587Z,1010.50
2022-12-01T09:47:09.613Z,1010.49
2022-12-01T09:48:09.578Z,1010.38
2022-12-01T09:49:09.555Z,1010.33
2022-12-01T09:50:09.538Z,1010.34
2022-12-01T09:51:09.519Z,1010.32
2022-12-01T09:52:09.523Z,1010.31
2022-12-01T09:53:09.493Z,1010.36
2022-12-01T09:54:09.521Z,1010.33
2022-12-01T09:55:09.468Z,1010.35
2022-12-01T09:56:12.941Z,1010.32
2022-12-01T09:57:09.461Z,1010.35
2022-12-01T09:58:09.425Z,1010.29
2022-12-01T09:59:09.416Z,1010.34
2022-12-01T10:00:09.409Z,1010.31
2022-12-01T10:01:09.413Z,1010.37
2022-12-01T10:02:09.457Z,1010.34
2022-12-01T10:03:09.366Z,1010.34
2022-12-01T10:04:09.365Z,1010.31
2022-12-01T10:05:09.398Z,1010.36
2022-12-01T10:06:26.600Z,1010.30
2022-12-01T10:07:10.347Z,1010.28
2022-12-01T10:08:09.363Z,1010.30
2022-12-01T10:09:09.285Z,1010.25
2022-12-01T10:10:09.269Z,1010.28
2022-12-01T10:11:09.267Z,1010.27
2022-12-01T10:12:09.245Z,1010.22
2022-12-01T10:13:09.251Z,1010.25
2022-12-01T10:14:09.218Z,1010.24
2022-12-01T10:15:09.208Z,1010.25
2022-12-01T10:16:09.246Z,1010.21
2022-12-01T10:17:09.181Z,1010.27
2022-12-01T10:18:09.185Z,1010.20
2022-12-01T10:19:09.158Z,1010.16
2022-12-01T10:20:09.159Z,1010.21
2022-12-01T10:21:09.150Z,1010.17
2022-12-01T10:22:09.120Z,1010.17
2022-12-01T10:23:09.125Z,1010.14
2022-12-01T10:24:09.090Z,1010.19
2022-12-01T10:25:09.076Z,1010.21
2022-12-01T10:26:09.059Z,1010.16
2022-12-01T10:27:09.048Z,1010.12
2022-12-01T10:28:09.052Z,1010.13
2022-12-01T10:29:09.027Z,1010.20
2022-12-01T10:30:09.009Z,1010.00
2022-12-01T10:31:09.101Z,1010.10
2022-12-01T10:32:08.988Z,1010.07
2022-12-01T10:33:08.985Z,1010.09
2022-12-01T10:34:08.952Z,1010.09
2022-12-01T10:35:08.951Z,1010.17
2022-12-01T10:36:08.948Z,1010.14
2022-12-01T10:37:08.918Z,1010.15
2022-12-01T10:38:08.965Z,1010.16
2022-12-01T10:39:08.891Z,1010.08
2022-12-01T10:40:08.878Z,1010.08
2022-12-01T10:41:08.875Z,1010.01
2022-12-01T10:42:08.856Z,1010.04
2022-12-01T10:43:08.853Z,1009.96
2022-12-01T10:44:08.825Z,1010.07
2022-12-01T10:45:08.813Z,1009.97
2022-12-01T10:46:08.839Z,1009.95
2022-12-01T10:47:08.788Z,1009.98
2022-12-01T10:48:08.788Z,1009.93
2022-12-01T10:49:08.763Z,1009.94
2022-12-01T10:50:08.748Z,1009.93
2022-12-01T10:51:08.737Z,1009.92
2022-12-01T10:52:08.748Z,1009.90
2022-12-01T10:53:08.727Z,1009.91
2022-12-01T10:54:08.699Z,1009.91
2022-12-01T10:55:08.687Z,1009.81
2022-12-01T10:56:08.669Z,1009.79
2022-12-01T10:57:08.656Z,1009.84
2022-12-01T10:58:09.567Z,1009.92
2022-12-01T10:59:08.637Z,1009.86
2022-12-01T11:00:08.642Z,1009.88
2022-12-01T11:01:08.664Z,1009.89
2022-12-01T11:02:08.769Z,1009.89
2022-12-01T11:03:08.820Z,1009.95
2022-12-01T11:04:08.566Z,1009.90
2022-12-01T11:05:08.553Z,1009.86
2022-12-01T11:06:08.539Z,1009.86
2022-12-01T11:07:08.524Z,1009.77
2022-12-01T11:08:08.607Z,1009.92
2022-12-01T11:09:08.502Z,1009.84
2022-12-01T11:10:08.486Z,1009.92
2022-12-01T11:11:08.473Z,1009.81
2022-12-01T11:12:08.471Z,1009.84
2022-12-01T11:13:08.466Z,1009.98
2022-12-01T11:14:08.434Z,1009.96
2022-12-01T11:15:08.429Z,1010.04
2022-12-01T11:16:08.464Z,1010.01
2022-12-01T11:17:08.400Z,1009.76
2022-12-01T11:17:51.322Z,1009.91
2022-12-01T11:18:51.376Z,1009.93
2022-12-01T11:19:51.816Z,1009.81
2022-12-01T11:20:51.289Z,1009.64
2022-12-01T11:21:51.269Z,1009.64
2022-12-01T11:22:51.255Z,1009.60
2022-12-01T11:23:51.278Z,1009.61
2022-12-01T11:24:51.230Z,1009.65
2022-12-01T11:25:51.213Z,1009.60
2022-12-01T11:26:51.201Z,1009.64
2022-12-01T11:27:51.188Z,1009.63
2022-12-01T11:28:51.202Z,1009.65
2022-12-01T11:29:51.636Z,1009.60
2022-12-01T11:30:55.315Z,1009.61
2022-12-01T11:31:51.201Z,1009.76
2022-12-01T11:32:51.123Z,1009.70
2022-12-01T11:33:51.118Z,1009.78
2022-12-01T11:34:51.384Z,1009.88
2022-12-01T11:35:51.084Z,1009.95
2022-12-01T11:36:51.074Z,1009.89
2022-12-01T11:38:20.973Z,1009.72
2022-12-01T11:38:51.061Z,1009.81
2022-12-01T11:39:51.517Z,1009.59
2022-12-01T11:40:51.018Z,1009.58
2022-12-01T11:41:51.002Z,1009.50
2022-12-01T11:42:50.989Z,1009.56
2022-12-01T11:44:01.156Z,1009.55
2022-12-01T11:44:51.935Z,1009.59
2022-12-01T11:45:51.020Z,1009.76
2022-12-01T11:47:07.697Z,1009.77
2022-12-01T11:47:51.922Z,1009.74
2022-12-01T11:48:50.925Z,1009.67
2022-12-01T11:49:51.021Z,1009.73
2022-12-01T11:50:50.884Z,1009.74
2022-12-01T11:51:50.870Z,1009.69
2022-12-01T11:52:50.859Z,1009.65
2022-12-01T11:53:50.862Z,1009.71
2022-12-01T11:54:50.831Z,1009.70
2022-12-01T11:55:50.837Z,1009.66
2022-12-01T11:57:17.509Z,1009.73
2022-12-01T11:57:50.795Z,1009.69
2022-12-01T11:58:50.946Z,1009.61
2022-12-01T11:59:51.152Z,1009.67
2022-12-01T12:00:50.754Z,1009.62
2022-12-01T12:01:50.738Z,1009.67
2022-12-01T12:02:50.752Z,1009.65
2022-12-01T12:03:50.790Z,1009.63
2022-12-01T12:04:50.701Z,1009.65